sensor_id;sensor_type;location;lat;lon;timestamp;P1;durP1;ratioP1;P2;durP2;ratioP2
1376;SDS011;682;52.502;13.488;2023-11-21T00:01:26;8.27;;;7.50;;
1376;SDS011;682;52.502;13.488;2023-11-21T00:03:53;8.50;;;7.70;;
1376;SDS011;682;52.502;13.488;2023-11-21T00:06:20;9.63;;;8.73;;
1376;SDS011;682;52.502;13.488;2023-11-21T00:08:47;10.33;;;8.20;;
1376;SDS011;682;52.502;13.488;2023-11-21T00:11:14;10.23;;;9.23;;
1376;SDS011;682;52.502;13.488;2023-11-21T00:13:41;11.10;;;8.83;;
1376;SDS011;682;52.502;13.488;2023-11-21T00:16:09;10.93;;;9.27;;
1376;SDS011;682;52.502;13.488;2023-11-21T00:18:38;11.67;;;10.47;;
1376;SDS011;682;52.502;13.488;2023-11-21T00:21:05;11.40;;;10.20;;
1376;SDS011;682;52.502;13.488;2023-11-21T00:23:32;11.10;;;9.93;;
1376;SDS011;682;52.502;13.488;2023-11-21T00:25:59;14.00;;;11.60;;
1376;SDS011;682;52.502;13.488;2023-11-21T00:28:26;14.53;;;11.30;;
1376;SDS011;682;52.502;13.488;2023-11-21T00:30:53;15.03;;;13.30;;
1376;SDS011;682;52.502;13.488;2023-11-21T00:33:20;16.80;;;14.30;;
1376;SDS011;682;52.502;13.488;2023-11-21T00:35:48;18.77;;;14.40;;
1376;SDS011;682;52.502;13.488;2023-11-21T00:38:15;18.30;;;15.23;;
1376;SDS011;682;52.502;13.488;2023-11-21T00:40:45;17.63;;;14.30;;
1376;SDS011;682;52.502;13.488;2023-11-21T00:43:12;18.90;;;15.80;;
1376;SDS011;682;52.502;13.488;2023-11-21T00:45:40;20.90;;;16.20;;
1376;SDS011;682;52.502;13.488;2023-11-21T00:48:07;20.70;;;16.33;;
1376;SDS011;682;52.502;13.488;2023-11-21T00:50:34;20.77;;;16.50;;
1376;SDS011;682;52.502;13.488;2023-11-21T00:53:02;25.17;;;17.37;;
1376;SDS011;682;52.502;13.488;2023-11-21T00:55:29;27.57;;;17.93;;
1376;SDS011;682;52.502;13.488;2023-11-21T00:57:56;26.03;;;19.60;;
1376;SDS011;682;52.502;13.488;2023-11-21T01:00:23;28.07;;;20.37;;
1376;SDS011;682;52.502;13.488;2023-11-21T01:02:50;23.43;;;17.73;;
1376;SDS011;682;52.502;13.488;2023-11-21T01:05:17;29.87;;;20.67;;
1376;SDS011;682;52.502;13.488;2023-11-21T01:07:46;28.80;;;19.20;;
1376;SDS011;682;52.502;13.488;2023-11-21T01:10:14;27.10;;;19.60;;
1376;SDS011;682;52.502;13.488;2023-11-21T01:12:42;32.33;;;21.02;;
1376;SDS011;682;52.502;13.488;2023-11-21T01:15:09;28.40;;;18.27;;
1376;SDS011;682;52.502;13.488;2023-11-21T01:17:37;31.57;;;19.77;;
1376;SDS011;682;52.502;13.488;2023-11-21T01:20:06;27.63;;;18.93;;
1376;SDS011;682;52.502;13.488;2023-11-21T01:22:37;31.00;;;21.33;;
1376;SDS011;682;52.502;13.488;2023-11-21T01:25:04;35.90;;;22.07;;
1376;SDS011;682;52.502;13.488;2023-11-21T01:27:33;33.10;;;20.97;;
1376;SDS011;682;52.502;13.488;2023-11-21T01:30:01;37.73;;;22.37;;
1376;SDS011;682;52.502;13.488;2023-11-21T01:32:28;33.13;;;21.08;;
1376;SDS011;682;52.502;13.488;2023-11-21T01:34:55;36.50;;;23.05;;
1376;SDS011;682;52.502;13.488;2023-11-21T01:37:22;38.17;;;23.40;;
1376;SDS011;682;52.502;13.488;2023-11-21T01:39:49;41.25;;;25.17;;
1376;SDS011;682;52.502;13.488;2023-11-21T01:42:16;42.17;;;25.70;;
1376;SDS011;682;52.502;13.488;2023-11-21T01:44:45;50.87;;;27.10;;
1376;SDS011;682;52.502;13.488;2023-11-21T01:47:11;41.38;;;25.55;;
1376;SDS011;682;52.502;13.488;2023-11-21T01:49:40;42.05;;;25.38;;
1376;SDS011;682;52.502;13.488;2023-11-21T01:52:09;36.50;;;25.87;;
1376;SDS011;682;52.502;13.488;2023-11-21T01:54:37;43.03;;;25.83;;
1376;SDS011;682;52.502;13.488;2023-11-21T01:57:05;42.93;;;26.20;;
1376;SDS011;682;52.502;13.488;2023-11-21T01:59:33;49.78;;;28.17;;
1376;SDS011;682;52.502;13.488;2023-11-21T02:02:03;47.17;;;28.40;;
1376;SDS011;682;52.502;13.488;2023-11-21T02:04:31;54.22;;;28.42;;
1376;SDS011;682;52.502;13.488;2023-11-21T02:06:58;49.30;;;27.10;;
1376;SDS011;682;52.502;13.488;2023-11-21T02:09:26;47.57;;;26.87;;
1376;SDS011;682;52.502;13.488;2023-11-21T02:11:54;50.13;;;27.70;;
1376;SDS011;682;52.502;13.488;2023-11-21T02:14:21;46.17;;;27.40;;
1376;SDS011;682;52.502;13.488;2023-11-21T02:16:50;45.90;;;24.80;;
1376;SDS011;682;52.502;13.488;2023-11-21T02:19:19;44.00;;;25.05;;
1376;SDS011;682;52.502;13.488;2023-11-21T02:21:48;43.22;;;21.92;;
1376;SDS011;682;52.502;13.488;2023-11-21T02:24:18;41.97;;;23.20;;
1376;SDS011;682;52.502;13.488;2023-11-21T02:26:46;38.43;;;22.00;;
1376;SDS011;682;52.502;13.488;2023-11-21T02:29:13;35.83;;;20.43;;
1376;SDS011;682;52.502;13.488;2023-11-21T02:31:43;34.50;;;22.40;;
1376;SDS011;682;52.502;13.488;2023-11-21T02:34:14;29.02;;;17.65;;
1376;SDS011;682;52.502;13.488;2023-11-21T02:36:43;28.83;;;18.70;;
1376;SDS011;682;52.502;13.488;2023-11-21T02:39:10;28.13;;;16.77;;
1376;SDS011;682;52.502;13.488;2023-11-21T02:41:39;27.20;;;17.60;;
1376;SDS011;682;52.502;13.488;2023-11-21T02:44:06;27.90;;;17.33;;
1376;SDS011;682;52.502;13.488;2023-11-21T02:46:33;28.15;;;14.48;;
1376;SDS011;682;52.502;13.488;2023-11-21T02:49:01;23.88;;;15.35;;
1376;SDS011;682;52.502;13.488;2023-11-21T02:51:28;20.25;;;13.95;;
1376;SDS011;682;52.502;13.488;2023-11-21T02:53:55;19.20;;;12.40;;
1376;SDS011;682;52.502;13.488;2023-11-21T02:56:24;21.57;;;13.80;;
1376;SDS011;682;52.502;13.488;2023-11-21T02:58:55;20.05;;;12.20;;
1376;SDS011;682;52.502;13.488;2023-11-21T03:01:22;18.52;;;12.43;;
1376;SDS011;682;52.502;13.488;2023-11-21T03:03:50;13.95;;;11.48;;
1376;SDS011;682;52.502;13.488;2023-11-21T03:06:17;17.30;;;12.57;;
1376;SDS011;682;52.502;13.488;2023-11-21T03:08:44;17.58;;;11.75;;
1376;SDS011;682;52.502;13.488;2023-11-21T03:11:11;13.73;;;11.85;;
1376;SDS011;682;52.502;13.488;2023-11-21T03:13:39;14.38;;;12.00;;
1376;SDS011;682;52.502;13.488;2023-11-21T03:16:08;14.82;;;12.50;;
1376;SDS011;682;52.502;13.488;2023-11-21T03:18:35;14.40;;;12.52;;
1376;SDS011;682;52.502;13.488;2023-11-21T03:21:02;15.68;;;11.45;;
1376;SDS011;682;52.502;13.488;2023-11-21T03:23:29;16.08;;;12.68;;
1376;SDS011;682;52.502;13.488;2023-11-21T03:25:56;14.38;;;11.82;;
1376;SDS011;682;52.502;13.488;2023-11-21T03:28:24;13.45;;;11.25;;
1376;SDS011;682;52.502;13.488;2023-11-21T03:30:51;13.93;;;11.77;;
1376;SDS011;682;52.502;13.488;2023-11-21T03:33:20;14.27;;;12.00;;
1376;SDS011;682;52.502;13.488;2023-11-21T03:35:47;13.05;;;11.18;;
1376;SDS011;682;52.502;13.488;2023-11-21T03:38:14;13.02;;;11.57;;
1376;SDS011;682;52.502;13.488;2023-11-21T03:40:42;13.43;;;11.93;;
1376;SDS011;682;52.502;13.488;2023-11-21T03:43:08;12.63;;;11.35;;
1376;SDS011;682;52.502;13.488;2023-11-21T03:45:35;13.70;;;11.68;;
1376;SDS011;682;52.502;13.488;2023-11-21T03:48:02;14.60;;;11.60;;
1376;SDS011;682;52.502;13.488;2023-11-21T03:50:31;11.82;;;10.52;;
1376;SDS011;682;52.502;13.488;2023-11-21T03:52:58;13.68;;;10.82;;
1376;SDS011;682;52.502;13.488;2023-11-21T03:55:25;13.68;;;11.18;;
1376;SDS011;682;52.502;13.488;2023-11-21T03:57:52;13.65;;;11.85;;
1376;SDS011;682;52.502;13.488;2023-11-21T04:00:19;13.43;;;11.77;;
1376;SDS011;682;52.502;13.488;2023-11-21T04:02:47;11.85;;;10.57;;
1376;SDS011;682;52.502;13.488;2023-11-21T04:05:13;13.32;;;11.93;;
1376;SDS011;682;52.502;13.488;2023-11-21T04:07:42;11.45;;;10.25;;
1376;SDS011;682;52.502;13.488;2023-11-21T04:10:09;13.70;;;11.20;;
1376;SDS011;682;52.502;13.488;2023-11-21T04:12:38;13.70;;;10.85;;
1376;SDS011;682;52.502;13.488;2023-11-21T04:15:05;12.57;;;10.80;;
1376;SDS011;682;52.502;13.488;2023-11-21T04:17:34;11.70;;;10.07;;
1376;SDS011;682;52.502;13.488;2023-11-21T04:20:02;10.90;;;9.80;;
1376;SDS011;682;52.502;13.488;2023-11-21T04:22:33;12.32;;;10.23;;
1376;SDS011;682;52.502;13.488;2023-11-21T04:25:01;13.10;;;10.90;;
1376;SDS011;682;52.502;13.488;2023-11-21T04:27:28;11.80;;;10.35;;
1376;SDS011;682;52.502;13.488;2023-11-21T04:29:55;12.65;;;10.38;;
1376;SDS011;682;52.502;13.488;2023-11-21T04:32:22;11.53;;;10.20;;
1376;SDS011;682;52.502;13.488;2023-11-21T04:34:49;12.70;;;10.70;;
1376;SDS011;682;52.502;13.488;2023-11-21T04:37:16;12.02;;;10.60;;
1376;SDS011;682;52.502;13.488;2023-11-21T04:39:43;12.20;;;10.18;;
1376;SDS011;682;52.502;13.488;2023-11-21T04:42:11;11.63;;;9.52;;
1376;SDS011;682;52.502;13.488;2023-11-21T04:44:39;10.60;;;9.57;;
1376;SDS011;682;52.502;13.488;2023-11-21T04:47:06;10.75;;;9.65;;
1376;SDS011;682;52.502;13.488;2023-11-21T04:49:33;10.43;;;9.35;;
1376;SDS011;682;52.502;13.488;2023-11-21T04:52:00;12.30;;;9.32;;
1376;SDS011;682;52.502;13.488;2023-11-21T04:54:28;10.57;;;9.48;;
1376;SDS011;682;52.502;13.488;2023-11-21T04:56:55;11.60;;;8.75;;
1376;SDS011;682;52.502;13.488;2023-11-21T04:59:25;9.82;;;8.65;;
1376;SDS011;682;52.502;13.488;2023-11-21T05:01:52;8.95;;;7.97;;
1376;SDS011;682;52.502;13.488;2023-11-21T05:04:19;11.48;;;8.88;;
1376;SDS011;682;52.502;13.488;2023-11-21T05:06:47;10.60;;;9.10;;
1376;SDS011;682;52.502;13.488;2023-11-21T05:09:14;9.60;;;8.27;;
1376;SDS011;682;52.502;13.488;2023-11-21T05:11:41;9.52;;;8.63;;
1376;SDS011;682;52.502;13.488;2023-11-21T05:14:08;11.30;;;8.27;;
1376;SDS011;682;52.502;13.488;2023-11-21T05:16:40;11.60;;;8.93;;
1376;SDS011;682;52.502;13.488;2023-11-21T05:19:07;8.32;;;7.43;;
1376;SDS011;682;52.502;13.488;2023-11-21T05:21:34;8.73;;;7.15;;
1376;SDS011;682;52.502;13.488;2023-11-21T05:24:02;15.93;;;11.35;;
1376;SDS011;682;52.502;13.488;2023-11-21T05:26:30;8.27;;;6.60;;
1376;SDS011;682;52.502;13.488;2023-11-21T05:28:57;9.40;;;7.28;;
1376;SDS011;682;52.502;13.488;2023-11-21T05:31:24;9.18;;;8.27;;
1376;SDS011;682;52.502;13.488;2023-11-21T05:33:53;8.90;;;7.68;;
1376;SDS011;682;52.502;13.488;2023-11-21T05:36:20;10.00;;;9.05;;
1376;SDS011;682;52.502;13.488;2023-11-21T05:38:47;10.75;;;8.63;;
1376;SDS011;682;52.502;13.488;2023-11-21T05:41:14;7.73;;;7.00;;
1376;SDS011;682;52.502;13.488;2023-11-21T05:43:42;10.50;;;9.02;;
1376;SDS011;682;52.502;13.488;2023-11-21T05:46:09;9.13;;;8.05;;
1376;SDS011;682;52.502;13.488;2023-11-21T05:48:36;8.50;;;7.00;;
1376;SDS011;682;52.502;13.488;2023-11-21T05:51:05;8.60;;;7.73;;
1376;SDS011;682;52.502;13.488;2023-11-21T05:53:33;10.83;;;9.73;;
1376;SDS011;682;52.502;13.488;2023-11-21T05:56:00;7.80;;;7.00;;
1376;SDS011;682;52.502;13.488;2023-11-21T05:58:28;13.73;;;10.80;;
1376;SDS011;682;52.502;13.488;2023-11-21T06:00:55;10.18;;;8.98;;
1376;SDS011;682;52.502;13.488;2023-11-21T06:03:23;7.60;;;6.53;;
1376;SDS011;682;52.502;13.488;2023-11-21T06:05:50;8.90;;;7.45;;
1376;SDS011;682;52.502;13.488;2023-11-21T06:08:18;7.07;;;6.18;;
1376;SDS011;682;52.502;13.488;2023-11-21T06:10:45;8.17;;;6.50;;
1376;SDS011;682;52.502;13.488;2023-11-21T06:13:14;7.10;;;5.77;;
1376;SDS011;682;52.502;13.488;2023-11-21T06:15:41;8.68;;;6.72;;
1376;SDS011;682;52.502;13.488;2023-11-21T06:18:08;8.23;;;5.93;;
1376;SDS011;682;52.502;13.488;2023-11-21T06:20:36;11.18;;;8.43;;
1376;SDS011;682;52.502;13.488;2023-11-21T06:23:03;7.60;;;6.28;;
1376;SDS011;682;52.502;13.488;2023-11-21T06:25:32;7.65;;;6.32;;
1376;SDS011;682;52.502;13.488;2023-11-21T06:28:01;7.93;;;6.68;;
1376;SDS011;682;52.502;13.488;2023-11-21T06:30:28;6.80;;;5.77;;
1376;SDS011;682;52.502;13.488;2023-11-21T06:32:55;9.95;;;6.25;;
1376;SDS011;682;52.502;13.488;2023-11-21T06:35:22;9.50;;;7.05;;
1376;SDS011;682;52.502;13.488;2023-11-21T06:37:49;9.88;;;6.75;;
1376;SDS011;682;52.502;13.488;2023-11-21T06:40:17;7.07;;;6.33;;
1376;SDS011;682;52.502;13.488;2023-11-21T06:42:46;8.03;;;6.63;;
1376;SDS011;682;52.502;13.488;2023-11-21T06:45:13;8.90;;;7.38;;
1376;SDS011;682;52.502;13.488;2023-11-21T06:47:42;8.00;;;7.20;;
1376;SDS011;682;52.502;13.488;2023-11-21T06:50:10;8.13;;;7.32;;
1376;SDS011;682;52.502;13.488;2023-11-21T06:52:37;7.88;;;7.13;;
1376;SDS011;682;52.502;13.488;2023-11-21T06:55:05;7.55;;;6.85;;
1376;SDS011;682;52.502;13.488;2023-11-21T06:57:33;7.82;;;6.88;;
1376;SDS011;682;52.502;13.488;2023-11-21T07:00:02;8.43;;;7.50;;
1376;SDS011;682;52.502;13.488;2023-11-21T07:02:29;8.20;;;7.40;;
1376;SDS011;682;52.502;13.488;2023-11-21T07:04:57;8.25;;;7.20;;
1376;SDS011;682;52.502;13.488;2023-11-21T07:07:24;9.23;;;7.95;;
1376;SDS011;682;52.502;13.488;2023-11-21T07:09:51;11.13;;;7.53;;
1376;SDS011;682;52.502;13.488;2023-11-21T07:12:18;9.82;;;6.70;;
1376;SDS011;682;52.502;13.488;2023-11-21T07:14:48;8.10;;;7.10;;
1376;SDS011;682;52.502;13.488;2023-11-21T07:17:17;7.40;;;6.38;;
1376;SDS011;682;52.502;13.488;2023-11-21T07:19:44;9.40;;;7.10;;
1376;SDS011;682;52.502;13.488;2023-11-21T07:22:11;10.00;;;7.50;;
1376;SDS011;682;52.502;13.488;2023-11-21T07:24:39;7.37;;;6.70;;
1376;SDS011;682;52.502;13.488;2023-11-21T07:27:05;8.23;;;7.43;;
1376;SDS011;682;52.502;13.488;2023-11-21T07:29:34;7.75;;;6.97;;
1376;SDS011;682;52.502;13.488;2023-11-21T07:32:01;7.70;;;6.87;;
1376;SDS011;682;52.502;13.488;2023-11-21T07:34:30;7.60;;;6.78;;
1376;SDS011;682;52.502;13.488;2023-11-21T07:36:57;7.95;;;5.72;;
1376;SDS011;682;52.502;13.488;2023-11-21T07:39:23;6.60;;;5.90;;
1376;SDS011;682;52.502;13.488;2023-11-21T07:41:50;7.32;;;5.90;;
1376;SDS011;682;52.502;13.488;2023-11-21T07:44:17;6.53;;;5.93;;
1376;SDS011;682;52.502;13.488;2023-11-21T07:46:45;8.23;;;6.63;;
1376;SDS011;682;52.502;13.488;2023-11-21T07:49:12;7.93;;;5.80;;
1376;SDS011;682;52.502;13.488;2023-11-21T07:51:42;10.38;;;5.95;;
1376;SDS011;682;52.502;13.488;2023-11-21T07:54:10;7.07;;;5.57;;
1376;SDS011;682;52.502;13.488;2023-11-21T07:56:37;10.70;;;6.82;;
1376;SDS011;682;52.502;13.488;2023-11-21T07:59:04;8.68;;;6.47;;
1376;SDS011;682;52.502;13.488;2023-11-21T08:01:31;12.23;;;7.00;;
1376;SDS011;682;52.502;13.488;2023-11-21T08:03:58;13.13;;;7.05;;
1376;SDS011;682;52.502;13.488;2023-11-21T08:06:28;10.45;;;6.88;;
1376;SDS011;682;52.502;13.488;2023-11-21T08:08:57;11.73;;;7.30;;
1376;SDS011;682;52.502;13.488;2023-11-21T08:11:24;10.32;;;7.13;;
1376;SDS011;682;52.502;13.488;2023-11-21T08:13:54;10.43;;;7.03;;
1376;SDS011;682;52.502;13.488;2023-11-21T08:16:21;10.98;;;6.88;;
1376;SDS011;682;52.502;13.488;2023-11-21T08:18:49;14.75;;;8.48;;
1376;SDS011;682;52.502;13.488;2023-11-21T08:21:16;14.77;;;9.52;;
1376;SDS011;682;52.502;13.488;2023-11-21T08:23:44;15.60;;;10.60;;
1376;SDS011;682;52.502;13.488;2023-11-21T08:26:13;14.23;;;8.37;;
1376;SDS011;682;52.502;13.488;2023-11-21T08:28:43;15.40;;;9.50;;
1376;SDS011;682;52.502;13.488;2023-11-21T08:31:10;13.43;;;8.90;;
1376;SDS011;682;52.502;13.488;2023-11-21T08:33:37;15.27;;;9.25;;
1376;SDS011;682;52.502;13.488;2023-11-21T08:36:06;14.48;;;9.48;;
1376;SDS011;682;52.502;13.488;2023-11-21T08:38:35;17.60;;;9.60;;
1376;SDS011;682;52.502;13.488;2023-11-21T08:41:04;16.10;;;8.93;;
1376;SDS011;682;52.502;13.488;2023-11-21T08:43:35;18.65;;;10.10;;
1376;SDS011;682;52.502;13.488;2023-11-21T08:46:04;14.90;;;9.48;;
1376;SDS011;682;52.502;13.488;2023-11-21T08:48:31;18.67;;;10.60;;
1376;SDS011;682;52.502;13.488;2023-11-21T08:50:58;16.07;;;9.30;;
1376;SDS011;682;52.502;13.488;2023-11-21T08:53:25;15.15;;;9.05;;
1376;SDS011;682;52.502;13.488;2023-11-21T08:55:52;15.60;;;10.38;;
1376;SDS011;682;52.502;13.488;2023-11-21T08:58:20;11.90;;;8.93;;
1376;SDS011;682;52.502;13.488;2023-11-21T09:00:48;15.63;;;9.57;;
1376;SDS011;682;52.502;13.488;2023-11-21T09:03:15;19.85;;;8.85;;
1376;SDS011;682;52.502;13.488;2023-11-21T09:05:42;16.45;;;9.60;;
1376;SDS011;682;52.502;13.488;2023-11-21T09:08:09;16.60;;;10.50;;
1376;SDS011;682;52.502;13.488;2023-11-21T09:10:36;14.98;;;10.13;;
1376;SDS011;682;52.502;13.488;2023-11-21T09:13:04;17.73;;;9.95;;
1376;SDS011;682;52.502;13.488;2023-11-21T09:15:34;13.65;;;8.40;;
1376;SDS011;682;52.502;13.488;2023-11-21T09:18:02;13.15;;;8.02;;
1376;SDS011;682;52.502;13.488;2023-11-21T09:20:30;13.30;;;7.60;;
1376;SDS011;682;52.502;13.488;2023-11-21T09:22:57;10.40;;;8.03;;
1376;SDS011;682;52.502;13.488;2023-11-21T09:25:24;11.85;;;7.65;;
1376;SDS011;682;52.502;13.488;2023-11-21T09:27:50;10.32;;;6.82;;
1376;SDS011;682;52.502;13.488;2023-11-21T09:30:17;10.70;;;7.47;;
1376;SDS011;682;52.502;13.488;2023-11-21T09:32:45;12.07;;;7.00;;
1376;SDS011;682;52.502;13.488;2023-11-21T09:35:13;10.63;;;6.30;;
1376;SDS011;682;52.502;13.488;2023-11-21T09:37:42;9.90;;;5.20;;
1376;SDS011;682;52.502;13.488;2023-11-21T09:40:11;9.48;;;5.57;;
1376;SDS011;682;52.502;13.488;2023-11-21T09:42:43;7.05;;;4.35;;
1376;SDS011;682;52.502;13.488;2023-11-21T09:45:18;3.95;;;3.55;;
1376;SDS011;682;52.502;13.488;2023-11-21T09:47:51;9.53;;;3.90;;
1376;SDS011;682;52.502;13.488;2023-11-21T09:50:20;5.88;;;5.05;;
1376;SDS011;682;52.502;13.488;2023-11-21T09:52:49;4.87;;;3.80;;
1376;SDS011;682;52.502;13.488;2023-11-21T09:55:26;6.50;;;3.40;;
1376;SDS011;682;52.502;13.488;2023-11-21T09:57:55;5.90;;;3.70;;
1376;SDS011;682;52.502;13.488;2023-11-21T10:00:23;5.87;;;3.63;;
1376;SDS011;682;52.502;13.488;2023-11-21T10:02:50;6.17;;;3.47;;
1376;SDS011;682;52.502;13.488;2023-11-21T10:05:18;7.00;;;3.70;;
1376;SDS011;682;52.502;13.488;2023-11-21T10:07:48;3.50;;;3.20;;
1376;SDS011;682;52.502;13.488;2023-11-21T10:10:17;4.87;;;3.50;;
1376;SDS011;682;52.502;13.488;2023-11-21T10:12:48;4.32;;;3.40;;
1376;SDS011;682;52.502;13.488;2023-11-21T10:15:18;3.80;;;3.42;;
1376;SDS011;682;52.502;13.488;2023-11-21T10:17:50;4.80;;;4.30;;
1376;SDS011;682;52.502;13.488;2023-11-21T10:20:19;4.60;;;3.23;;
1376;SDS011;682;52.502;13.488;2023-11-21T10:22:46;8.07;;;3.28;;
1376;SDS011;682;52.502;13.488;2023-11-21T10:25:15;5.88;;;3.25;;
1376;SDS011;682;52.502;13.488;2023-11-21T10:27:46;4.75;;;4.15;;
1376;SDS011;682;52.502;13.488;2023-11-21T10:30:15;6.63;;;2.75;;
1376;SDS011;682;52.502;13.488;2023-11-21T10:32:43;5.57;;;3.63;;
1376;SDS011;682;52.502;13.488;2023-11-21T10:35:10;6.05;;;4.05;;
1376;SDS011;682;52.502;13.488;2023-11-21T10:37:37;3.83;;;3.20;;
1376;SDS011;682;52.502;13.488;2023-11-21T10:40:07;4.40;;;4.00;;
1376;SDS011;682;52.502;13.488;2023-11-21T10:42:37;4.43;;;4.03;;
1376;SDS011;682;52.502;13.488;2023-11-21T10:45:04;5.55;;;3.80;;
1376;SDS011;682;52.502;13.488;2023-11-21T10:47:37;10.63;;;8.30;;
1376;SDS011;682;52.502;13.488;2023-11-21T10:50:06;5.73;;;4.67;;
1376;SDS011;682;52.502;13.488;2023-11-21T10:52:36;5.32;;;3.97;;
1376;SDS011;682;52.502;13.488;2023-11-21T10:55:07;4.38;;;3.50;;
1376;SDS011;682;52.502;13.488;2023-11-21T10:57:43;4.10;;;3.30;;
1376;SDS011;682;52.502;13.488;2023-11-21T11:00:14;4.53;;;4.10;;
1376;SDS011;682;52.502;13.488;2023-11-21T11:02:45;5.10;;;3.90;;
1376;SDS011;682;52.502;13.488;2023-11-21T11:05:14;7.38;;;5.53;;
1376;SDS011;682;52.502;13.488;2023-11-21T11:07:45;7.13;;;4.40;;
1376;SDS011;682;52.502;13.488;2023-11-21T11:10:18;8.38;;;4.80;;
1376;SDS011;682;52.502;13.488;2023-11-21T11:12:47;8.77;;;6.25;;
1376;SDS011;682;52.502;13.488;2023-11-21T11:15:17;5.50;;;4.65;;
1376;SDS011;682;52.502;13.488;2023-11-21T11:17:46;6.57;;;4.45;;
1376;SDS011;682;52.502;13.488;2023-11-21T11:20:14;6.63;;;6.03;;
1376;SDS011;682;52.502;13.488;2023-11-21T11:22:44;6.07;;;4.40;;
1376;SDS011;682;52.502;13.488;2023-11-21T11:25:27;5.28;;;4.78;;
1376;SDS011;682;52.502;13.488;2023-11-21T11:28:07;5.43;;;4.82;;
1376;SDS011;682;52.502;13.488;2023-11-21T11:30:47;6.80;;;5.72;;
1376;SDS011;682;52.502;13.488;2023-11-21T11:33:26;6.82;;;5.50;;
1376;SDS011;682;52.502;13.488;2023-11-21T11:36:02;10.10;;;9.10;;
1376;SDS011;682;52.502;13.488;2023-11-21T11:38:33;6.75;;;6.15;;
1376;SDS011;682;52.502;13.488;2023-11-21T11:41:02;7.82;;;6.43;;
1376;SDS011;682;52.502;13.488;2023-11-21T11:43:31;5.50;;;5.00;;
1376;SDS011;682;52.502;13.488;2023-11-21T11:46:07;5.05;;;4.65;;
1376;SDS011;682;52.502;13.488;2023-11-21T11:48:35;4.68;;;4.25;;
1376;SDS011;682;52.502;13.488;2023-11-21T11:51:05;5.53;;;4.93;;
1376;SDS011;682;52.502;13.488;2023-11-21T11:53:37;6.68;;;4.95;;
1376;SDS011;682;52.502;13.488;2023-11-21T11:59:00;6.57;;;5.35;;
1376;SDS011;682;52.502;13.488;2023-11-21T12:01:28;4.63;;;4.22;;
1376;SDS011;682;52.502;13.488;2023-11-21T12:06:55;4.93;;;4.43;;
1376;SDS011;682;52.502;13.488;2023-11-21T12:09:25;5.68;;;4.20;;
1376;SDS011;682;52.502;13.488;2023-11-21T12:11:55;7.68;;;4.50;;
1376;SDS011;682;52.502;13.488;2023-11-21T12:14:23;5.00;;;4.22;;
1376;SDS011;682;52.502;13.488;2023-11-21T12:16:50;5.22;;;4.30;;
1376;SDS011;682;52.502;13.488;2023-11-21T12:19:18;5.03;;;4.53;;
1376;SDS011;682;52.502;13.488;2023-11-21T12:21:46;8.73;;;7.70;;
1376;SDS011;682;52.502;13.488;2023-11-21T12:24:14;18.63;;;13.23;;
1376;SDS011;682;52.502;13.488;2023-11-21T12:26:41;10.77;;;8.20;;
1376;SDS011;682;52.502;13.488;2023-11-21T12:29:10;11.20;;;7.25;;
1376;SDS011;682;52.502;13.488;2023-11-21T12:31:37;5.93;;;5.30;;
1376;SDS011;682;52.502;13.488;2023-11-21T12:34:05;6.15;;;5.47;;
1376;SDS011;682;52.502;13.488;2023-11-21T12:36:34;3.95;;;3.58;;
1376;SDS011;682;52.502;13.488;2023-11-21T12:39:01;4.28;;;3.50;;
1376;SDS011;682;52.502;13.488;2023-11-21T12:41:29;3.38;;;3.13;;
1376;SDS011;682;52.502;13.488;2023-11-21T12:43:56;3.80;;;3.50;;
1376;SDS011;682;52.502;13.488;2023-11-21T12:46:25;3.50;;;3.20;;
1376;SDS011;682;52.502;13.488;2023-11-21T12:48:55;3.90;;;3.60;;
1376;SDS011;682;52.502;13.488;2023-11-21T12:51:24;4.45;;;3.40;;
1376;SDS011;682;52.502;13.488;2023-11-21T12:53:51;3.90;;;3.60;;
1376;SDS011;682;52.502;13.488;2023-11-21T12:56:19;4.18;;;3.78;;
1376;SDS011;682;52.502;13.488;2023-11-21T12:58:49;8.15;;;4.55;;
1376;SDS011;682;52.502;13.488;2023-11-21T13:01:17;5.03;;;4.53;;
1376;SDS011;682;52.502;13.488;2023-11-21T13:03:48;5.70;;;4.55;;
1376;SDS011;682;52.502;13.488;2023-11-21T13:06:17;4.47;;;4.07;;
1376;SDS011;682;52.502;13.488;2023-11-21T13:08:45;4.65;;;4.13;;
1376;SDS011;682;52.502;13.488;2023-11-21T13:11:12;5.63;;;4.57;;
1376;SDS011;682;52.502;13.488;2023-11-21T13:13:40;4.72;;;4.32;;
1376;SDS011;682;52.502;13.488;2023-11-21T13:16:10;6.40;;;4.30;;
1376;SDS011;682;52.502;13.488;2023-11-21T13:18:38;5.18;;;4.68;;
1376;SDS011;682;52.502;13.488;2023-11-21T13:21:08;8.48;;;6.65;;
1376;SDS011;682;52.502;13.488;2023-11-21T13:23:38;5.05;;;4.55;;
1376;SDS011;682;52.502;13.488;2023-11-21T13:26:06;5.00;;;4.60;;
1376;SDS011;682;52.502;13.488;2023-11-21T13:28:33;4.47;;;4.07;;
1376;SDS011;682;52.502;13.488;2023-11-21T13:31:03;5.20;;;4.70;;
1376;SDS011;682;52.502;13.488;2023-11-21T13:33:45;4.55;;;4.15;;
1376;SDS011;682;52.502;13.488;2023-11-21T13:36:17;6.00;;;5.10;;
1376;SDS011;682;52.502;13.488;2023-11-21T13:38:47;6.55;;;5.28;;
1376;SDS011;682;52.502;13.488;2023-11-21T13:41:15;7.32;;;6.72;;
1376;SDS011;682;52.502;13.488;2023-11-21T13:43:43;8.95;;;5.80;;
1376;SDS011;682;52.502;13.488;2023-11-21T13:46:17;6.07;;;5.50;;
1376;SDS011;682;52.502;13.488;2023-11-21T13:48:48;7.15;;;6.20;;
1376;SDS011;682;52.502;13.488;2023-11-21T13:51:20;5.70;;;5.00;;
1376;SDS011;682;52.502;13.488;2023-11-21T13:53:55;8.65;;;7.15;;
1376;SDS011;682;52.502;13.488;2023-11-21T13:56:22;6.95;;;5.80;;
1376;SDS011;682;52.502;13.488;2023-11-21T13:58:49;8.20;;;6.63;;
1376;SDS011;682;52.502;13.488;2023-11-21T14:01:16;6.43;;;5.82;;
1376;SDS011;682;52.502;13.488;2023-11-21T14:04:06;8.60;;;7.65;;
1376;SDS011;682;52.502;13.488;2023-11-21T14:06:45;7.75;;;6.95;;
1376;SDS011;682;52.502;13.488;2023-11-21T14:09:14;7.30;;;6.60;;
1376;SDS011;682;52.502;13.488;2023-11-21T14:11:48;7.75;;;6.97;;
1376;SDS011;682;52.502;13.488;2023-11-21T14:14:16;9.05;;;7.95;;
1376;SDS011;682;52.502;13.488;2023-11-21T14:16:43;10.38;;;8.10;;
1376;SDS011;682;52.502;13.488;2023-11-21T14:19:11;10.20;;;8.88;;
1376;SDS011;682;52.502;13.488;2023-11-21T14:21:41;9.98;;;8.98;;
1376;SDS011;682;52.502;13.488;2023-11-21T14:24:10;12.73;;;11.32;;
1376;SDS011;682;52.502;13.488;2023-11-21T14:26:39;12.10;;;10.77;;
1376;SDS011;682;52.502;13.488;2023-11-21T14:29:07;12.60;;;11.30;;
1376;SDS011;682;52.502;13.488;2023-11-21T14:31:37;15.00;;;13.60;;
1376;SDS011;682;52.502;13.488;2023-11-21T14:34:06;14.02;;;12.57;;
1376;SDS011;682;52.502;13.488;2023-11-21T14:36:33;15.43;;;13.85;;
1376;SDS011;682;52.502;13.488;2023-11-21T14:39:01;15.50;;;13.82;;
1376;SDS011;682;52.502;13.488;2023-11-21T14:41:33;17.42;;;15.40;;
1376;SDS011;682;52.502;13.488;2023-11-21T14:44:01;18.08;;;16.27;;
1376;SDS011;682;52.502;13.488;2023-11-21T14:46:29;18.67;;;16.65;;
1376;SDS011;682;52.502;13.488;2023-11-21T14:48:56;17.85;;;16.05;;
1376;SDS011;682;52.502;13.488;2023-11-21T14:51:27;26.27;;;18.40;;
1376;SDS011;682;52.502;13.488;2023-11-21T14:53:56;23.52;;;19.55;;
1376;SDS011;682;52.502;13.488;2023-11-21T14:56:26;21.70;;;18.83;;
1376;SDS011;682;52.502;13.488;2023-11-21T14:58:57;20.40;;;16.23;;
1376;SDS011;682;52.502;13.488;2023-11-21T15:01:30;21.20;;;17.95;;
1376;SDS011;682;52.502;13.488;2023-11-21T15:04:09;22.25;;;18.42;;
1376;SDS011;682;52.502;13.488;2023-11-21T15:06:48;22.27;;;19.15;;
1376;SDS011;682;52.502;13.488;2023-11-21T15:09:15;20.40;;;18.17;;
1376;SDS011;682;52.502;13.488;2023-11-21T15:11:59;22.50;;;19.80;;
1376;SDS011;682;52.502;13.488;2023-11-21T15:14:40;19.65;;;17.60;;
1376;SDS011;682;52.502;13.488;2023-11-21T15:17:08;23.75;;;19.63;;